Time;durP1;ratioP1;P1;durP2;ratioP2;P2;SDS_P1;SDS_P2;PMS_P1;PMS_P2;Temp;Humidity;BMP_temperature;BMP_pressure;BME280_temperature;BME280_humidity;BME280_pressure;Samples;Min_cycle;Max_cycle;Signal;HPM_P1;HPM_P2
2022/07/31 00:01:52;;;;;;;3.72;1.20;;;18.60;99.90;;;;;;5059981;28;20055;-73
2022/07/31 00:04:18;;;;;;;3.95;1.40;;;18.60;99.90;;;;;;5047612;28;20056;-73
2022/07/31 00:06:44;;;;;;;6.78;1.52;;;18.50;99.90;;;;;;5060969;28;20040;-73
2022/07/31 00:09:10;;;;;;;5.25;1.33;;;18.50;99.90;;;;;;5056800;28;20045;-73
2022/07/31 00:11:36;;;;;;;2.88;1.33;;;18.50;99.90;;;;;;5060419;28;20408;-73
2022/07/31 00:14:01;;;;;;;2.25;1.38;;;18.50;99.90;;;;;;5060264;28;20128;-73
2022/07/31 00:16:27;;;;;;;4.70;1.48;;;18.40;99.90;;;;;;5060254;28;20500;-73
2022/07/31 00:18:53;;;;;;;3.13;1.48;;;18.40;99.90;;;;;;5062825;28;20371;-73
2022/07/31 00:21:18;;;;;;;2.72;1.52;;;18.30;99.90;;;;;;5059961;28;20140;-73
2022/07/31 00:23:44;;;;;;;3.70;1.17;;;18.30;99.90;;;;;;5057833;28;20044;-73
2022/07/31 00:26:10;;;;;;;2.28;1.40;;;18.30;99.90;;;;;;5045912;28;20047;-73
2022/07/31 00:28:36;;;;;;;3.88;1.60;;;18.20;99.90;;;;;;5058160;28;20052;-73
2022/07/31 00:31:02;;;;;;;5.38;1.35;;;18.10;99.90;;;;;;5064244;28;20045;-73
2022/07/31 00:33:28;;;;;;;3.17;1.73;;;18.10;99.90;;;;;;5042535;28;20041;-73
2022/07/31 00:35:54;;;;;;;3.88;1.48;;;18.10;99.90;;;;;;5062738;28;20032;-73
2022/07/31 00:38:19;;;;;;;4.20;1.42;;;18.00;99.90;;;;;;5059467;28;20350;-73
2022/07/31 00:40:49;;;;;;;3.78;1.50;;;18.00;99.90;;;;;;5060336;28;20041;-73
2022/07/31 00:43:15;;;;;;;4.88;1.67;;;18.00;99.90;;;;;;5062797;28;20040;-73
2022/07/31 00:45:41;;;;;;;5.78;1.40;;;17.90;99.90;;;;;;5064242;28;20138;-73
2022/07/31 00:48:07;;;;;;;6.65;1.80;;;17.90;99.90;;;;;;5064939;28;20423;-73
2022/07/31 00:50:33;;;;;;;6.40;1.67;;;17.80;99.90;;;;;;5047431;28;20124;-73
2022/07/31 00:52:59;;;;;;;3.70;1.45;;;17.80;99.90;;;;;;5061217;28;20056;-73
2022/07/31 00:55:25;;;;;;;5.80;1.80;;;17.80;99.90;;;;;;5048768;28;20393;-73
2022/07/31 00:57:51;;;;;;;5.00;1.70;;;17.70;99.90;;;;;;5057930;28;20040;-73
2022/07/31 01:00:17;;;;;;;5.10;1.70;;;17.70;99.90;;;;;;5056882;28;20139;-73
2022/07/31 01:02:42;;;;;;;5.38;1.98;;;17.70;99.90;;;;;;5062995;28;20067;-73
2022/07/31 01:05:08;;;;;;;4.97;2.20;;;17.70;99.90;;;;;;5043371;28;20115;-73
2022/07/31 01:07:34;;;;;;;3.65;1.70;;;17.70;99.90;;;;;;5061821;28;20040;-73
2022/07/31 01:10:05;;;;;;;4.05;1.88;;;17.80;99.90;;;;;;5050708;28;20409;-73
2022/07/31 01:12:59;;;;;;;4.13;1.80;;;17.80;99.90;;;;;;5063793;28;20044;-73
2022/07/31 01:15:27;;;;;;;3.13;2.00;;;17.80;99.90;;;;;;5053188;28;20119;-73
2022/07/31 01:17:54;;;;;;;6.68;2.30;;;17.80;99.90;;;;;;5054678;28;20039;-73
2022/07/31 01:20:20;;;;;;;3.80;1.88;;;17.70;99.90;;;;;;5042179;28;20110;-73
2022/07/31 01:22:55;;;;;;;4.88;2.22;;;17.80;99.90;;;;;;5060315;28;20053;-73
2022/07/31 01:26:08;;;;;;;5.20;2.03;;;17.80;99.90;;;;;;5059136;28;20063;-73
2022/07/31 01:28:59;;;;;;;6.32;2.63;;;17.80;99.90;;;;;;5056838;28;20522;-73
2022/07/31 01:31:43;;;;;;;5.85;2.40;;;17.80;99.90;;;;;;5058879;28;20033;-73
2022/07/31 01:34:16;;;;;;;6.50;2.50;;;17.80;99.90;;;;;;5065443;28;20193;-75
2022/07/31 01:36:51;;;;;;;8.00;2.53;;;17.80;99.90;;;;;;5057449;28;20037;-73
2022/07/31 01:39:17;;;;;;;5.07;3.30;;;17.80;99.90;;;;;;5061647;28;20041;-73
2022/07/31 01:41:46;;;;;;;5.85;3.38;;;17.80;99.90;;;;;;5054888;28;20123;-73
2022/07/31 01:44:14;;;;;;;3.65;2.67;;;17.80;99.90;;;;;;5065675;28;20098;-72
2022/07/31 01:46:42;;;;;;;3.28;2.65;;;17.80;99.90;;;;;;5062617;28;20045;-73
2022/07/31 01:49:10;;;;;;;5.35;3.00;;;17.80;99.90;;;;;;5063470;28;20048;-73
2022/07/31 01:51:38;;;;;;;4.32;2.90;;;17.80;99.90;;;;;;5063624;28;20060;-74
2022/07/31 01:54:05;;;;;;;4.60;2.80;;;17.90;99.90;;;;;;5063716;28;20068;-73
2022/07/31 01:56:31;;;;;;;5.03;3.20;;;17.80;99.90;;;;;;5046514;28;20506;-73
2022/07/31 01:58:59;;;;;;;7.70;2.88;;;17.80;99.90;;;;;;5045882;28;20116;-73
2022/07/31 02:01:25;;;;;;;3.42;2.70;;;17.80;99.90;;;;;;5056478;28;20075;-73
2022/07/31 02:03:52;;;;;;;5.30;2.80;;;17.80;99.90;;;;;;5061165;28;20037;-73
2022/07/31 02:06:20;;;;;;;4.57;2.80;;;17.80;99.90;;;;;;5065105;28;20037;-73
2022/07/31 02:08:50;;;;;;;4.63;2.95;;;17.80;99.90;;;;;;5057951;28;20053;-73
2022/07/31 02:11:18;;;;;;;5.32;3.25;;;17.80;99.90;;;;;;5064834;28;20060;-73
2022/07/31 02:13:45;;;;;;;4.70;2.75;;;17.80;99.90;;;;;;5045839;28;20519;-73
2022/07/31 02:16:12;;;;;;;4.38;3.15;;;17.70;99.90;;;;;;5064366;28;20048;-73
2022/07/31 02:18:39;;;;;;;7.93;3.28;;;17.70;99.90;;;;;;5058948;28;20037;-73
2022/07/31 02:21:05;;;;;;;4.07;2.90;;;17.70;99.90;;;;;;5056866;28;20055;-73
2022/07/31 02:23:31;;;;;;;7.30;3.58;;;17.70;99.90;;;;;;5058491;28;20100;-73
2022/07/31 02:25:57;;;;;;;5.22;3.15;;;17.70;99.90;;;;;;5055847;28;20041;-73
2022/07/31 02:28:24;;;;;;;5.00;3.20;;;17.70;99.90;;;;;;5056021;28;20061;-73
2022/07/31 02:30:51;;;;;;;5.68;3.53;;;17.70;99.90;;;;;;5062987;28;20526;-73
2022/07/31 02:33:20;;;;;;;12.60;5.53;;;17.70;99.90;;;;;;5057967;28;20051;-73
2022/07/31 02:35:49;;;;;;;4.97;3.55;;;17.70;99.90;;;;;;5064290;28;20048;-73
2022/07/31 02:38:18;;;;;;;5.65;3.88;;;17.70;99.90;;;;;;5063237;28;20571;-73
2022/07/31 02:40:44;;;;;;;5.55;4.22;;;17.70;99.90;;;;;;5064619;28;20059;-73
2022/07/31 02:43:11;;;;;;;7.30;4.03;;;17.70;99.90;;;;;;5061484;28;20132;-73
2022/07/31 02:45:37;;;;;;;7.30;4.40;;;17.70;99.90;;;;;;5063370;28;20559;-73
2022/07/31 02:48:04;;;;;;;5.63;3.60;;;17.70;99.90;;;;;;5044559;28;20050;-73
2022/07/31 02:50:30;;;;;;;4.38;3.80;;;17.70;99.90;;;;;;5049602;28;20040;-73
2022/07/31 02:52:57;;;;;;;5.63;4.20;;;17.70;99.90;;;;;;5060741;28;20044;-73
2022/07/31 02:55:23;;;;;;;5.10;3.88;;;17.70;99.90;;;;;;5056581;28;20040;-73
2022/07/31 02:57:50;;;;;;;6.03;4.47;;;17.70;99.90;;;;;;5053572;28;20489;-73
2022/07/31 03:00:22;;;;;;;8.65;7.22;;;17.70;99.90;;;;;;5042033;28;20463;-73
2022/07/31 03:02:49;;;;;;;7.05;4.43;;;17.70;99.90;;;;;;5063864;28;20053;-73
2022/07/31 03:05:15;;;;;;;4.13;3.60;;;17.70;99.90;;;;;;5063606;28;20036;-73
2022/07/31 03:07:41;;;;;;;9.52;4.03;;;17.70;99.90;;;;;;5060548;28;20434;-73
2022/07/31 03:10:09;;;;;;;6.13;3.60;;;17.70;99.90;;;;;;5041067;28;20051;-73
2022/07/31 03:12:38;;;;;;;9.85;3.70;;;17.70;99.90;;;;;;5057648;28;20492;-73
2022/07/31 03:15:08;;;;;;;6.15;3.75;;;17.70;99.90;;;;;;5054772;28;20067;-73
2022/07/31 03:17:37;;;;;;;5.28;3.53;;;17.60;99.90;;;;;;5056282;28;20079;-73
2022/07/31 03:20:04;;;;;;;4.85;3.90;;;17.60;99.90;;;;;;5056190;28;20112;-72
2022/07/31 03:22:30;;;;;;;4.18;3.42;;;17.60;99.90;;;;;;5053160;28;20105;-72
2022/07/31 03:24:56;;;;;;;5.50;3.63;;;17.60;99.90;;;;;;5062679;28;20442;-72
2022/07/31 03:27:22;;;;;;;6.85;3.58;;;17.60;99.90;;;;;;5063467;28;20048;-72
2022/07/31 03:29:48;;;;;;;7.88;4.10;;;17.60;99.90;;;;;;5057610;28;20090;-72
2022/07/31 03:32:13;;;;;;;5.65;4.00;;;17.60;99.90;;;;;;5048231;28;20044;-72
2022/07/31 03:34:39;;;;;;;5.40;3.50;;;17.60;99.90;;;;;;5055986;28;20040;-72
2022/07/31 03:37:05;;;;;;;4.78;3.78;;;17.60;99.90;;;;;;5064769;28;20033;-72
2022/07/31 03:39:30;;;;;;;5.47;3.45;;;17.60;99.90;;;;;;5059580;28;20425;-72
2022/07/31 03:41:57;;;;;;;9.98;4.35;;;17.60;99.90;;;;;;5061116;28;20063;-72
2022/07/31 03:44:24;;;;;;;6.10;3.88;;;17.60;99.90;;;;;;5067206;28;20110;-72
2022/07/31 03:46:50;;;;;;;4.60;4.00;;;17.60;99.90;;;;;;5042041;28;20045;-72
2022/07/31 03:49:16;;;;;;;5.13;4.60;;;17.60;99.90;;;;;;5064215;28;20063;-72
2022/07/31 03:51:42;;;;;;;6.32;4.63;;;17.50;99.90;;;;;;5060685;28;20517;-72
2022/07/31 03:54:08;;;;;;;6.32;4.25;;;17.50;99.90;;;;;;5061107;28;20033;-72
2022/07/31 03:56:35;;;;;;;7.00;4.70;;;17.50;99.90;;;;;;5063226;28;20162;-72
2022/07/31 03:59:02;;;;;;;7.00;4.95;;;17.50;99.90;;;;;;5061772;28;20043;-72
2022/07/31 04:01:28;;;;;;;6.32;4.30;;;17.50;99.90;;;;;;5051194;28;20060;-72
2022/07/31 04:03:58;;;;;;;4.72;4.30;;;17.60;99.90;;;;;;5057835;28;20033;-72
2022/07/31 04:06:23;;;;;;;5.40;4.05;;;17.60;99.90;;;;;;5057208;28;20122;-72
2022/07/31 04:08:49;;;;;;;4.65;4.13;;;17.50;99.90;;;;;;5061022;28;20068;-72
2022/07/31 04:11:15;;;;;;;5.72;4.10;;;17.60;99.90;;;;;;5063163;28;20040;-72
2022/07/31 04:13:41;;;;;;;4.68;4.22;;;17.60;99.90;;;;;;5061386;28;20473;-72
2022/07/31 04:16:06;;;;;;;6.65;4.20;;;17.60;99.90;;;;;;5064105;28;20103;-72
2022/07/31 04:18:33;;;;;;;6.30;4.03;;;17.70;99.90;;;;;;5064440;28;20033;-72
2022/07/31 04:20:59;;;;;;;4.65;3.55;;;17.70;99.90;;;;;;5041701;28;20067;-72
2022/07/31 04:23:25;;;;;;;6.20;3.80;;;17.70;99.90;;;;;;5064743;28;20036;-72
2022/07/31 04:25:50;;;;;;;7.13;4.22;;;17.70;99.90;;;;;;5055173;28;20075;-72
2022/07/31 04:28:16;;;;;;;4.10;3.67;;;17.70;99.90;;;;;;5036807;28;20036;-72
2022/07/31 04:30:42;;;;;;;6.22;5.05;;;17.80;99.90;;;;;;5057979;28;20360;-72
2022/07/31 04:33:08;;;;;;;6.13;3.97;;;17.80;99.90;;;;;;5064681;28;20450;-72
2022/07/31 04:35:34;;;;;;;7.78;4.45;;;17.80;99.90;;;;;;5065969;28;20063;-72
2022/07/31 04:37:59;;;;;;;4.90;3.97;;;17.80;99.90;;;;;;5061121;28;20044;-72
2022/07/31 04:40:26;;;;;;;5.60;3.67;;;17.70;99.90;;;;;;5060861;28;20419;-72
2022/07/31 04:42:52;;;;;;;6.57;3.83;;;17.80;99.90;;;;;;5059389;28;20488;-72
2022/07/31 04:45:18;;;;;;;5.95;4.07;;;17.90;99.90;;;;;;5061187;28;20041;-72
2022/07/31 04:47:44;;;;;;;5.53;4.05;;;17.90;99.90;;;;;;5040466;28;20056;-72
2022/07/31 04:50:10;;;;;;;5.65;4.45;;;17.90;99.90;;;;;;5054634;28;20052;-72
2022/07/31 04:52:35;;;;;;;4.85;3.60;;;17.90;99.90;;;;;;5052446;28;20670;-72
2022/07/31 04:55:01;;;;;;;6.03;4.03;;;17.90;99.90;;;;;;5059224;28;20167;-72
2022/07/31 04:57:27;;;;;;;5.70;4.30;;;17.80;99.90;;;;;;5059664;28;20123;-72
2022/07/31 04:59:52;;;;;;;7.32;4.13;;;17.80;99.90;;;;;;5046766;28;20044;-72
2022/07/31 05:02:18;;;;;;;5.57;3.95;;;17.90;99.90;;;;;;5063988;28;20048;-72
2022/07/31 05:04:43;;;;;;;8.85;4.53;;;17.80;99.90;;;;;;5063447;28;20085;-72
2022/07/31 05:07:09;;;;;;;5.10;4.30;;;17.90;99.90;;;;;;5042361;28;20486;-72
2022/07/31 05:09:35;;;;;;;5.18;4.32;;;17.90;99.90;;;;;;5043594;28;20060;-72
2022/07/31 05:12:00;;;;;;;5.25;4.75;;;17.90;99.90;;;;;;5068095;28;20044;-72
2022/07/31 05:14:27;;;;;;;5.82;4.60;;;17.90;99.90;;;;;;5040062;28;20041;-72
2022/07/31 05:16:53;;;;;;;6.28;4.85;;;18.00;99.90;;;;;;5058512;28;20041;-72
2022/07/31 05:19:18;;;;;;;6.15;4.07;;;18.10;99.90;;;;;;5063772;28;20048;-72
2022/07/31 05:21:44;;;;;;;5.57;4.53;;;18.10;99.90;;;;;;5054033;28;20095;-72
2022/07/31 05:24:10;;;;;;;4.70;4.28;;;18.20;99.90;;;;;;5060368;28;20114;-72
2022/07/31 05:26:37;;;;;;;6.40;4.75;;;18.20;99.90;;;;;;5052100;28;20119;-72
2022/07/31 05:29:04;;;;;;;7.10;3.97;;;18.30;99.90;;;;;;5065512;28;20137;-72
2022/07/31 05:31:29;;;;;;;5.63;4.93;;;18.30;99.90;;;;;;5065673;28;20412;-72
2022/07/31 05:33:57;;;;;;;4.72;4.32;;;18.40;99.90;;;;;;5055546;28;20049;-72
2022/07/31 05:36:24;;;;;;;7.43;4.68;;;18.40;99.90;;;;;;5064853;28;20044;-72
2022/07/31 05:38:50;;;;;;;5.43;4.63;;;18.50;99.90;;;;;;5061967;28;20033;-72
2022/07/31 05:41:16;;;;;;;7.90;4.78;;;18.50;99.90;;;;;;5065296;28;20551;-72
2022/07/31 05:43:42;;;;;;;5.10;4.70;;;18.50;99.90;;;;;;5058787;28;20099;-72
2022/07/31 05:46:07;;;;;;;6.05;5.18;;;18.50;99.90;;;;;;5066141;28;20044;-72
2022/07/31 05:48:33;;;;;;;6.50;4.80;;;18.60;99.90;;;;;;5064247;28;20043;-72
2022/07/31 05:50:59;;;;;;;6.13;4.72;;;18.60;99.90;;;;;;5046701;28;20477;-72
2022/07/31 05:53:25;;;;;;;6.05;4.97;;;18.70;99.90;;;;;;5066434;28;20072;-72
2022/07/31 05:55:51;;;;;;;6.43;5.40;;;18.70;99.90;;;;;;5061941;28;20041;-72
2022/07/31 05:58:18;;;;;;;6.72;5.25;;;18.70;99.90;;;;;;5060707;28;20029;-72
2022/07/31 06:00:46;;;;;;;6.95;5.10;;;18.70;99.90;;;;;;5059619;28;20079;-72
2022/07/31 06:03:12;;;;;;;7.78;5.30;;;18.80;99.90;;;;;;5048595;28;20044;-72
2022/07/31 06:05:39;;;;;;;8.70;5.80;;;18.80;99.90;;;;;;5057369;28;20115;-72
2022/07/31 06:08:05;;;;;;;8.80;5.68;;;18.80;99.90;;;;;;5063737;28;20056;-72
2022/07/31 06:10:31;;;;;;;8.77;5.47;;;18.80;99.90;;;;;;5061261;28;20062;-72
2022/07/31 06:12:57;;;;;;;9.15;5.82;;;18.80;99.90;;;;;;5045334;28;20060;-72
2022/07/31 06:15:23;;;;;;;7.47;6.13;;;18.90;99.90;;;;;;5044347;28;20049;-72
2022/07/31 06:17:49;;;;;;;11.20;5.65;;;18.90;99.90;;;;;;5065426;28;20044;-72
2022/07/31 06:20:15;;;;;;;5.90;5.30;;;18.90;99.90;;;;;;5065239;28;20099;-72
2022/07/31 06:22:44;;;;;;;6.85;6.00;;;19.00;99.90;;;;;;5062605;28;20032;-73
2022/07/31 06:25:11;;;;;;;6.28;5.15;;;19.10;99.90;;;;;;5066431;28;20042;-73
2022/07/31 06:27:37;;;;;;;5.97;4.68;;;19.10;99.90;;;;;;5059301;28;20062;-73
2022/07/31 06:30:04;;;;;;;5.95;5.05;;;19.20;99.90;;;;;;5057419;28;20072;-73
2022/07/31 06:32:31;;;;;;;6.95;5.07;;;19.20;99.90;;;;;;5056444;28;20075;-72
2022/07/31 06:34:56;;;;;;;7.85;4.95;;;19.30;99.90;;;;;;5047128;28;20131;-72
2022/07/31 06:37:22;;;;;;;5.53;4.93;;;19.40;99.90;;;;;;5045433;28;20132;-72
2022/07/31 06:39:48;;;;;;;5.65;4.18;;;19.50;99.90;;;;;;5063184;28;20066;-72
2022/07/31 06:42:18;;;;;;;6.80;5.00;;;19.60;99.90;;;;;;5044372;28;20080;-72
2022/07/31 06:44:44;;;;;;;6.97;4.78;;;19.70;99.90;;;;;;5043846;28;20457;-72
2022/07/31 06:47:09;;;;;;;6.35;5.25;;;19.80;99.90;;;;;;5068395;28;20072;-72
2022/07/31 06:49:35;;;;;;;5.88;4.78;;;19.90;99.90;;;;;;5058363;28;20492;-72
2022/07/31 06:52:01;;;;;;;5.53;4.47;;;19.90;99.90;;;;;;5053024;28;20084;-72
2022/07/31 06:54:26;;;;;;;5.03;4.53;;;20.00;99.90;;;;;;5058183;28;20041;-72
2022/07/31 06:56:52;;;;;;;9.75;5.18;;;20.00;99.90;;;;;;5060205;28;20037;-72
2022/07/31 06:59:18;;;;;;;5.72;4.95;;;20.10;99.90;;;;;;5060450;28;20033;-72
2022/07/31 07:01:43;;;;;;;5.60;5.10;;;20.10;99.90;;;;;;5047258;28;20135;-72
2022/07/31 07:04:09;;;;;;;7.90;4.93;;;20.10;99.90;;;;;;5048282;28;20063;-72
2022/07/31 07:06:35;;;;;;;11.23;5.05;;;20.10;99.90;;;;;;5043669;28;20075;-72
2022/07/31 07:09:00;;;;;;;5.68;4.93;;;20.20;99.90;;;;;;5051694;28;20117;-72
2022/07/31 07:11:26;;;;;;;8.07;5.15;;;20.20;99.90;;;;;;5051706;28;20124;-72
2022/07/31 07:13:51;;;;;;;5.88;4.57;;;20.20;99.90;;;;;;5065527;28;20036;-72
2022/07/31 07:16:17;;;;;;;8.02;4.85;;;20.30;99.90;;;;;;5059580;28;20045;-72
2022/07/31 07:18:43;;;;;;;5.75;5.07;;;20.30;99.90;;;;;;5057973;28;20511;-72
2022/07/31 07:21:09;;;;;;;5.65;4.78;;;20.30;99.90;;;;;;5067013;28;20051;-72
2022/07/31 07:23:35;;;;;;;6.93;4.93;;;20.30;99.90;;;;;;5046284;28;20546;-72
2022/07/31 07:26:00;;;;;;;6.70;4.50;;;20.30;99.90;;;;;;5063342;28;20135;-73
2022/07/31 07:28:26;;;;;;;6.25;5.18;;;20.40;99.90;;;;;;5061354;28;20048;-73
2022/07/31 07:30:52;;;;;;;6.28;5.25;;;20.40;99.90;;;;;;5060673;28;20041;-73
2022/07/31 07:33:17;;;;;;;10.57;5.00;;;20.50;99.90;;;;;;5059161;28;20060;-74
2022/07/31 07:35:43;;;;;;;8.48;4.90;;;20.60;99.90;;;;;;5060543;28;20150;-73
2022/07/31 07:38:09;;;;;;;9.32;5.50;;;20.70;99.90;;;;;;5040582;28;20066;-73
2022/07/31 07:40:34;;;;;;;7.97;5.65;;;20.80;99.90;;;;;;5060435;28;20472;-73
2022/07/31 07:43:00;;;;;;;7.00;5.75;;;20.90;99.90;;;;;;5061286;28;20044;-73
2022/07/31 07:45:26;;;;;;;5.60;5.10;;;21.00;99.90;;;;;;5045543;28;20480;-72
2022/07/31 07:47:51;;;;;;;7.15;5.38;;;21.20;99.90;;;;;;5061279;28;20052;-71
2022/07/31 07:50:17;;;;;;;6.60;5.82;;;21.20;99.90;;;;;;5062226;28;20036;-71
2022/07/31 07:52:43;;;;;;;6.68;5.60;;;21.30;99.90;;;;;;5063798;28;20131;-71
2022/07/31 07:55:11;;;;;;;6.10;5.45;;;21.40;99.90;;;;;;5059734;28;20435;-71
2022/07/31 07:57:37;;;;;;;5.82;5.32;;;21.40;99.90;;;;;;5062192;28;20083;-72
2022/07/31 08:00:06;;;;;;;6.43;5.53;;;21.40;99.90;;;;;;5054243;28;20040;-72
2022/07/31 08:02:32;;;;;;;7.85;6.10;;;21.50;99.90;;;;;;5055588;28;20041;-72
2022/07/31 08:04:59;;;;;;;6.78;5.85;;;21.60;99.90;;;;;;5052920;28;20335;-72
2022/07/31 08:07:33;;;;;;;6.57;5.95;;;21.60;99.90;;;;;;5064585;28;20071;-72
2022/07/31 08:10:00;;;;;;;10.10;6.43;;;21.70;99.90;;;;;;5074610;28;20045;-72
2022/07/31 08:12:26;;;;;;;6.22;5.57;;;21.70;99.90;;;;;;5064684;28;20054;-72
2022/07/31 08:14:52;;;;;;;8.40;6.38;;;21.70;99.90;;;;;;5058641;28;20507;-72
2022/07/31 08:17:18;;;;;;;8.65;6.63;;;21.80;99.90;;;;;;5061717;28;20045;-72
2022/07/31 08:19:44;;;;;;;6.68;6.05;;;21.90;99.90;;;;;;5064524;28;20116;-72
2022/07/31 08:22:10;;;;;;;8.95;5.95;;;21.90;99.90;;;;;;5062994;28;20078;-73
2022/07/31 08:24:36;;;;;;;7.82;5.85;;;22.00;99.90;;;;;;5053737;28;20076;-73
2022/07/31 08:29:46;;;;;;;8.35;5.40;;;22.20;99.90;;;;;;5059403;28;20275;-73
2022/07/31 08:32:12;;;;;;;10.10;6.03;;;22.30;99.90;;;;;;5057089;28;20092;-73
2022/07/31 08:34:38;;;;;;;8.65;5.70;;;22.40;99.90;;;;;;5058380;28;20044;-73
2022/07/31 08:37:05;;;;;;;7.30;5.85;;;22.50;99.90;;;;;;5062303;28;20036;-73
2022/07/31 08:39:35;;;;;;;7.10;5.13;;;22.50;99.90;;;;;;5059557;28;20043;-73
2022/07/31 08:42:05;;;;;;;7.43;5.07;;;22.60;99.90;;;;;;5062202;28;20036;-73
2022/07/31 08:44:31;;;;;;;8.32;5.80;;;22.60;99.90;;;;;;5055205;28;20045;-73
2022/07/31 08:46:57;;;;;;;6.15;4.93;;;22.50;99.90;;;;;;5058146;28;20511;-73
2022/07/31 08:49:30;;;;;;;7.35;4.72;;;22.50;99.90;;;;;;5042495;28;20041;-73
2022/07/31 08:51:58;;;;;;;4.95;4.50;;;22.40;99.90;;;;;;5055436;28;20053;-73
2022/07/31 08:54:26;;;;;;;8.73;5.18;;;22.40;99.90;;;;;;5053599;28;20048;-73
2022/07/31 08:56:52;;;;;;;8.00;6.00;;;22.40;99.90;;;;;;5057068;28;20043;-73
2022/07/31 08:59:18;;;;;;;7.00;6.00;;;22.40;99.90;;;;;;5059297;28;20025;-73
2022/07/31 09:01:44;;;;;;;8.05;6.03;;;22.30;99.90;;;;;;5060921;28;20371;-73
2022/07/31 09:04:10;;;;;;;8.57;5.75;;;22.20;99.90;;;;;;5063392;28;20405;-73
2022/07/31 09:06:37;;;;;;;7.35;6.18;;;22.10;99.90;;;;;;5057576;28;20061;-73
2022/07/31 09:09:03;;;;;;;8.05;5.63;;;22.00;99.90;;;;;;5060731;28;20449;-73
2022/07/31 09:11:29;;;;;;;8.65;6.20;;;21.90;99.90;;;;;;5058696;28;20696;-73
2022/07/31 09:14:01;;;;;;;7.70;6.63;;;21.80;99.90;;;;;;5056771;28;20043;-73
2022/07/31 09:16:28;;;;;;;10.18;6.10;;;21.80;99.90;;;;;;5060064;28;20033;-73
2022/07/31 09:19:01;;;;;;;11.57;6.95;;;21.60;99.90;;;;;;5060546;28;20123;-73
2022/07/31 09:21:41;;;;;;;9.43;5.67;;;21.60;99.90;;;;;;5041475;28;20060;-73
2022/07/31 09:24:09;;;;;;;9.75;6.47;;;21.50;99.90;;;;;;5064051;28;20718;-73
2022/07/31 09:26:35;;;;;;;6.70;6.00;;;21.40;99.90;;;;;;5060769;28;20489;-72
2022/07/31 09:29:07;;;;;;;8.27;6.60;;;21.20;99.90;;;;;;5059162;28;20037;-71
2022/07/31 09:31:34;;;;;;;7.82;6.35;;;21.20;99.90;;;;;;5056878;28;20075;-71
2022/07/31 09:34:00;;;;;;;9.00;7.40;;;21.10;99.90;;;;;;5055336;28;20033;-72
2022/07/31 09:36:26;;;;;;;8.30;7.43;;;21.00;99.90;;;;;;5058285;28;20110;-72
2022/07/31 09:38:55;;;;;;;8.60;7.50;;;21.00;99.90;;;;;;5060035;28;20049;-72
2022/07/31 09:41:22;;;;;;;9.90;7.47;;;20.90;99.90;;;;;;5054981;28;20094;-72
2022/07/31 09:43:54;;;;;;;8.85;7.93;;;20.90;99.90;;;;;;5063307;28;20044;-72
2022/07/31 09:46:20;;;;;;;10.35;8.45;;;20.80;99.90;;;;;;5056118;28;20055;-72
2022/07/31 09:48:51;;;;;;;11.27;9.60;;;20.80;99.90;;;;;;5060638;28;20040;-72
2022/07/31 09:51:17;;;;;;;10.90;9.50;;;20.90;99.90;;;;;;5060430;28;20084;-72
2022/07/31 09:53:45;;;;;;;10.98;8.65;;;20.90;99.90;;;;;;5061726;28;20479;-72
2022/07/31 09:56:11;;;;;;;11.07;9.95;;;20.90;99.90;;;;;;5067339;28;20051;-72
2022/07/31 09:58:41;;;;;;;12.98;9.18;;;20.80;99.90;;;;;;5056168;28;20494;-72
2022/07/31 10:01:11;;;;;;;13.10;10.07;;;20.80;99.90;;;;;;5062320;28;20090;-73
2022/07/31 10:03:39;;;;;;;11.82;9.68;;;20.70;99.90;;;;;;5060979;28;20061;-73
2022/07/31 10:06:10;;;;;;;12.75;9.43;;;20.80;99.90;;;;;;5064105;28;20045;-74
2022/07/31 10:08:36;;;;;;;11.35;9.70;;;20.80;99.90;;;;;;5064314;28;20048;-73
2022/07/31 10:11:04;;;;;;;10.48;9.38;;;20.80;99.90;;;;;;5066039;28;20045;-73
2022/07/31 10:13:33;;;;;;;11.70;9.25;;;20.90;99.90;;;;;;5064879;28;20116;-73
2022/07/31 10:16:00;;;;;;;10.57;9.52;;;21.00;99.90;;;;;;5064669;28;20492;-73
2022/07/31 10:18:28;;;;;;;10.13;9.13;;;21.00;99.90;;;;;;5045975;28;20044;-73
2022/07/31 10:20:55;;;;;;;10.00;9.10;;;21.00;99.90;;;;;;5060362;28;20049;-73
2022/07/31 10:23:25;;;;;;;10.82;9.23;;;21.00;99.90;;;;;;5056444;28;20044;-73
2022/07/31 10:25:55;;;;;;;9.35;8.40;;;21.10;99.90;;;;;;5057728;28;20342;-73
2022/07/31 10:28:22;;;;;;;11.10;9.02;;;21.10;99.90;;;;;;5060659;28;20039;-73
2022/07/31 10:30:49;;;;;;;10.75;8.52;;;21.00;99.90;;;;;;5067964;28;20452;-73
2022/07/31 10:33:16;;;;;;;10.30;9.13;;;21.00;99.90;;;;;;5064169;28;20052;-73
2022/07/31 10:36:05;;;;;;;12.25;9.02;;;20.90;99.90;;;;;;5064781;28;20454;-72
2022/07/31 10:38:57;;;;;;;11.10;9.13;;;20.90;99.90;;;;;;5063450;28;20441;-74
2022/07/31 10:41:36;;;;;;;11.57;10.27;;;20.80;99.90;;;;;;5062711;28;20040;-74
2022/07/31 10:44:33;;;;;;;10.88;9.82;;;20.90;99.90;;;;;;5065884;28;20755;-73
2022/07/31 10:46:59;;;;;;;10.75;9.75;;;20.90;99.90;;;;;;5060638;28;20036;-73
2022/07/31 10:49:45;;;;;;;11.32;10.20;;;20.90;99.90;;;;;;5039081;28;20045;-72
2022/07/31 10:52:10;;;;;;;10.77;9.85;;;21.00;99.90;;;;;;5060367;28;20076;-72
2022/07/31 10:54:45;;;;;;;10.98;9.85;;;21.00;99.90;;;;;;5056461;28;20045;-72
2022/07/31 10:57:21;;;;;;;;;;;20.90;99.90;;;;;;5064704;28;20099;-73
2022/07/31 10:59:46;;;;;;;10.18;9.13;;;20.90;99.90;;;;;;5045759;28;19927;-74
2022/07/31 11:02:12;;;;;;;10.55;9.55;;;20.80;99.90;;;;;;5067276;28;20029;-73
2022/07/31 11:04:38;;;;;;;11.27;9.90;;;20.80;99.90;;;;;;5059280;28;20056;-72
2022/07/31 11:07:14;;;;;;;11.40;10.23;;;20.70;99.90;;;;;;5062320;28;20041;-72
2022/07/31 11:09:40;;;;;;;11.60;9.73;;;20.80;99.90;;;;;;5057759;28;20049;-72
2022/07/31 11:12:17;;;;;;;11.73;9.75;;;20.70;99.90;;;;;;5059964;28;20052;-73
2022/07/31 11:14:43;;;;;;;10.10;8.88;;;20.70;99.90;;;;;;5037710;28;20040;-73
2022/07/31 11:17:09;;;;;;;12.18;10.10;;;20.60;99.90;;;;;;5057694;28;20040;-73
2022/07/31 11:19:40;;;;;;;10.98;9.98;;;20.60;99.90;;;;;;5050921;28;20056;-75
2022/07/31 11:22:14;;;;;;;14.65;11.70;;;20.60;99.90;;;;;;5043486;28;20106;-75
2022/07/31 11:24:40;;;;;;;15.65;11.55;;;20.50;99.90;;;;;;5060530;28;20082;-76
2022/07/31 11:27:06;;;;;;;18.00;12.98;;;20.40;99.90;;;;;;5048438;28;20084;-75
2022/07/31 11:29:37;;;;;;;16.40;13.45;;;20.40;99.90;;;;;;5047437;28;20044;-74
2022/07/31 11:32:14;;;;;;;13.85;12.40;;;20.40;99.90;;;;;;5065160;28;20119;-74
2022/07/31 11:34:52;;;;;;;15.88;14.18;;;20.30;99.90;;;;;;5049758;28;20048;-74
2022/07/31 11:37:25;;;;;;;14.88;13.35;;;20.20;99.90;;;;;;5054164;28;20037;-73
2022/07/31 11:39:53;;;;;;;18.23;15.60;;;20.10;99.90;;;;;;5055438;28;20036;-73
2022/07/31 11:42:20;;;;;;;19.77;16.58;;;20.00;99.90;;;;;;5056833;28;20091;-74
2022/07/31 11:44:46;;;;;;;16.42;14.73;;;20.00;99.90;;;;;;5057597;28;20044;-73
2022/07/31 11:47:12;;;;;;;19.90;16.25;;;19.80;99.90;;;;;;5060729;28;20524;-71
2022/07/31 11:49:37;;;;;;;21.55;17.63;;;19.80;99.90;;;;;;5065449;28;20758;-71
2022/07/31 11:52:06;;;;;;;25.92;19.70;;;19.70;99.90;;;;;;5059607;28;20053;-70
2022/07/31 11:54:33;;;;;;;24.80;19.38;;;19.60;99.90;;;;;;5061437;28;20068;-70
2022/07/31 11:56:59;;;;;;;25.13;20.70;;;19.60;99.90;;;;;;5059835;28;20040;-69
2022/07/31 11:59:35;;;;;;;22.00;19.25;;;19.60;99.90;;;;;;5062765;28;20399;-70
2022/07/31 12:02:06;;;;;;;22.80;19.73;;;19.60;99.90;;;;;;5055777;28;20128;-69
2022/07/31 12:04:32;;;;;;;23.15;20.65;;;19.50;99.90;;;;;;5061349;28;20467;-69
2022/07/31 12:06:59;;;;;;;22.90;20.42;;;19.60;99.90;;;;;;5060786;28;20043;-70
2022/07/31 12:09:25;;;;;;;27.02;22.90;;;19.50;99.90;;;;;;5061465;28;20045;-71
2022/07/31 12:11:51;;;;;;;26.92;23.45;;;19.60;99.90;;;;;;5059811;28;20413;-71
2022/07/31 12:14:36;;;;;;;24.25;21.65;;;19.70;99.90;;;;;;5065698;28;20111;-71
2022/07/31 12:17:03;;;;;;;29.25;23.88;;;19.70;99.90;;;;;;5061342;28;20084;-71
2022/07/31 12:19:30;;;;;;;28.15;25.13;;;19.70;99.90;;;;;;5059801;28;20041;-71
2022/07/31 12:21:57;;;;;;;28.95;24.48;;;19.60;99.90;;;;;;5066078;28;20093;-71
2022/07/31 12:24:23;;;;;;;33.42;27.08;;;19.70;99.90;;;;;;5056948;28;20044;-71
2022/07/31 12:26:59;;;;;;;30.80;26.85;;;19.70;99.90;;;;;;5056494;28;20128;-71
2022/07/31 12:29:33;;;;;;;29.90;26.75;;;19.70;99.90;;;;;;5055039;28;20083;-71
2022/07/31 12:31:59;;;;;;;36.35;28.80;;;19.70;99.90;;;;;;5055431;28;20048;-71
2022/07/31 12:34:24;;;;;;;37.85;29.70;;;19.70;99.90;;;;;;5059859;28;20118;-71
2022/07/31 12:37:21;;;;;;;43.65;32.65;;;19.80;99.90;;;;;;5060446;28;20044;-71
2022/07/31 12:39:46;;;;;;;30.92;27.30;;;20.00;99.90;;;;;;5059247;28;20051;-70
2022/07/31 12:42:23;;;;;;;34.03;28.55;;;20.10;99.90;;;;;;5060930;28;20049;-70
2022/07/31 12:44:50;;;;;;;31.65;28.27;;;20.00;99.90;;;;;;5065317;28;20437;-69
2022/07/31 12:47:22;;;;;;;38.45;30.40;;;20.00;99.90;;;;;;5064846;28;20044;-69
2022/07/31 12:49:48;;;;;;;39.55;32.38;;;19.90;99.90;;;;;;5059327;28;20037;-69